RKPC/CJU METAR and TAF weather

Enter ICAO airport designator
Station Type Date Time Source
RKPC METAR 2019/06/16 20:00 UTC NOAA

RKPC 162000Z 18003KT 160V220 CAVOK 17/14 Q1013 NOSIG


Station Type Date Time Source
RKPC Decoded METAR 2019/06/16 20:00 UTC NOAA

Cheju International Airport, Korea, South (RKPC) 33-30N 126-30E 28M
Jun 16, 2019 - 04:00 PM EDT / 2019.06.16 2000 UTC
Wind: from the S (180 degrees) at 3 MPH (3 KT) (direction variable):0
Visibility: greater than 7 mile(s):0
Temperature: 62 F (17 C)
Dew Point: 57 F (14 C)
Relative Humidity: 82%
Pressure (altimeter): 29.91 in. Hg (1013 hPa)
ob: RKPC 162000Z 18003KT 160V220 CAVOK 17/14 Q1013 NOSIG
cycle: 20

Station Type Date Time Source
RKPC TAF 2019/06/16 18:07 UTC NOAA

TAF RKPC 161700Z 1618/1724 21006KT CAVOK TN16/1621Z TX25/1705Z TN20/1720Z
BECMG 1623/1624 30008KT 9999 FEW030 BKN120
BECMG 1710/1711 20006KT 6000 NSC

Example: see airport list